Time;durP1;ratioP1;P1;durP2;ratioP2;P2;SDS_P1;SDS_P2;PMS_P1;PMS_P2;Temp;Humidity;BMP_temperature;BMP_pressure;BME280_temperature;BME280_humidity;BME280_pressure;Samples;Min_cycle;Max_cycle;Signal;HPM_P1;HPM_P2
2022/07/28 00:02:26;;;;;;;498.37;280.23;;;12.30;1.00;;;;;;4937465;29;20208;-84
2022/07/28 00:04:53;;;;;;;495.43;280.80;;;12.20;1.00;;;;;;4936829;29;20195;-84
2022/07/28 00:07:22;;;;;;;478.63;277.77;;;12.20;1.00;;;;;;4937570;29;20201;-83
2022/07/28 00:09:49;;;;;;;471.03;264.00;;;12.20;1.00;;;;;;4937382;29;20256;-84
2022/07/28 00:12:16;;;;;;;452.00;265.13;;;12.20;1.00;;;;;;4937397;29;20213;-84
2022/07/28 00:14:43;;;;;;;446.67;266.90;;;12.20;1.00;;;;;;4937072;29;20232;-83
2022/07/28 00:17:11;;;;;;;428.70;275.43;;;12.10;1.00;;;;;;4937390;29;20197;-87
2022/07/28 00:19:38;;;;;;;438.70;268.03;;;12.10;1.00;;;;;;4937053;29;20207;-84
2022/07/28 00:22:06;;;;;;;426.57;264.57;;;12.00;1.00;;;;;;4937034;29;20202;-84
2022/07/28 00:24:36;;;;;;;436.93;269.53;;;12.00;1.00;;;;;;4937057;29;20658;-83
2022/07/28 00:27:05;;;;;;;417.83;264.97;;;12.00;1.00;;;;;;4937293;29;20212;-83
2022/07/28 00:29:32;;;;;;;432.97;269.33;;;11.90;1.00;;;;;;4937217;29;20205;-86
2022/07/28 00:32:00;;;;;;;420.97;268.97;;;11.90;1.00;;;;;;4937005;29;20231;-84
2022/07/28 00:34:27;;;;;;;436.37;269.67;;;11.90;1.00;;;;;;4936773;29;20687;-83
2022/07/28 00:36:54;;;;;;;429.63;265.83;;;11.80;1.00;;;;;;4937077;29;20205;-84
2022/07/28 00:39:21;;;;;;;423.00;262.70;;;11.80;8.20;;;;;;4936943;29;20201;-83
2022/07/28 00:41:49;;;;;;;403.60;256.10;;;11.70;56.40;;;;;;4936935;29;20197;-84
2022/07/28 00:44:16;;;;;;;438.03;264.30;;;11.80;99.90;;;;;;4936664;29;20204;-86
2022/07/28 00:46:43;;;;;;;391.83;261.00;;;11.80;99.90;;;;;;4936713;29;20636;-83
2022/07/28 00:49:11;;;;;;;408.73;260.33;;;11.80;99.90;;;;;;4936473;29;20196;-86
2022/07/28 00:51:39;;;;;;;405.07;261.20;;;11.80;99.90;;;;;;4936328;29;20253;-84
2022/07/28 00:54:06;;;;;;;412.83;257.37;;;11.80;99.90;;;;;;4936685;29;20271;-85
2022/07/28 00:56:34;;;;;;;410.97;249.10;;;11.80;99.90;;;;;;4936664;29;20292;-84
2022/07/28 00:59:03;;;;;;;553.17;268.50;;;11.90;99.90;;;;;;4936473;29;20684;-85
2022/07/28 01:01:30;;;;;;;439.13;253.50;;;11.80;99.90;;;;;;4936873;29;20198;-85
2022/07/28 01:04:00;;;;;;;423.07;255.53;;;11.80;99.90;;;;;;4936081;29;20200;-84
2022/07/28 01:06:43;;;;;;;414.47;261.27;;;11.80;99.90;;;;;;4936540;29;20194;-84
2022/07/28 01:09:20;;;;;;;400.50;258.07;;;11.80;1.00;;;;;;4936642;29;20219;-85
2022/07/28 01:11:55;;;;;;;353.93;253.30;;;11.80;1.00;;;;;;4936496;29;20178;-84
2022/07/28 01:14:30;;;;;;;369.50;256.93;;;11.80;1.00;;;;;;4936399;29;20194;-86
2022/07/28 01:17:03;;;;;;;353.20;255.27;;;11.80;1.00;;;;;;4936476;29;20185;-85
2022/07/28 01:19:39;;;;;;;366.87;256.83;;;11.70;99.90;;;;;;4936263;29;20188;-86
2022/07/28 01:22:10;;;;;;;330.53;253.53;;;11.70;99.90;;;;;;4936398;29;20335;-86
2022/07/28 01:24:47;;;;;;;376.57;253.67;;;11.60;1.00;;;;;;4936220;29;20292;-85
2022/07/28 01:27:28;;;;;;;426.47;256.33;;;11.50;99.90;;;;;;4936120;29;20216;-87
2022/07/28 01:30:07;;;;;;;351.13;245.40;;;11.50;99.90;;;;;;4935825;29;20201;-87
2022/07/28 01:32:41;;;;;;;367.00;250.03;;;11.40;1.00;;;;;;4936063;29;20232;-85
2022/07/28 01:35:12;;;;;;;400.53;241.17;;;11.30;99.90;;;;;;4935741;29;20220;-87
2022/07/28 01:37:44;;;;;;;396.40;251.10;;;11.30;99.90;;;;;;4936018;29;20192;-84
2022/07/28 01:40:15;;;;;;;408.03;242.87;;;11.20;99.90;;;;;;4935663;29;20248;-85
2022/07/28 01:42:46;;;;;;;390.00;243.57;;;11.20;99.90;;;;;;4936000;29;20564;-85
2022/07/28 01:45:15;;;;;;;392.73;241.73;;;11.20;99.90;;;;;;4935748;29;20652;-85
2022/07/28 01:47:46;;;;;;;579.03;243.70;;;11.00;99.90;;;;;;4935721;29;20550;-85
2022/07/28 01:50:16;;;;;;;639.43;240.03;;;11.00;43.40;;;;;;4935909;29;20184;-85
2022/07/28 01:52:46;;;;;;;655.60;231.47;;;11.00;1.00;;;;;;4936117;29;20646;-84
2022/07/28 01:55:14;;;;;;;657.80;228.90;;;11.10;1.00;;;;;;4935680;29;20198;-85
2022/07/28 01:57:43;;;;;;;637.63;234.07;;;11.00;1.00;;;;;;4935291;29;20563;-84
2022/07/28 02:00:12;;;;;;;621.93;239.17;;;10.90;1.00;;;;;;4935813;29;20647;-87
2022/07/28 02:02:43;;;;;;;641.70;237.10;;;10.90;1.00;;;;;;4935546;29;20202;-85
2022/07/28 02:05:12;;;;;;;636.50;234.60;;;;;;;;;;4935118;29;20183;-84
2022/07/28 02:07:41;;;;;;;630.27;219.60;;;10.80;99.90;;;;;;4935276;29;20203;-88
2022/07/28 02:10:12;;;;;;;645.77;228.50;;;;;;;;;;4935187;29;20238;-85
2022/07/28 02:12:40;;;;;;;650.07;233.47;;;10.70;99.90;;;;;;4935602;29;20223;-85
2022/07/28 02:15:10;;;;;;;648.67;230.77;;;10.70;99.90;;;;;;4935320;29;20194;-85
2022/07/28 02:17:41;;;;;;;642.13;229.30;;;10.70;1.00;;;;;;4935641;29;20177;-85
2022/07/28 02:20:10;;;;;;;644.53;229.80;;;10.90;99.90;;;;;;4936003;29;20565;-86
2022/07/28 02:22:41;;;;;;;640.67;223.60;;;10.70;99.90;;;;;;4935190;29;20249;-84
2022/07/28 02:25:09;;;;;;;658.03;223.27;;;10.60;99.90;;;;;;4935533;29;20207;-85
2022/07/28 02:27:39;;;;;;;658.17;219.73;;;10.70;99.90;;;;;;4934750;29;20197;-84
2022/07/28 02:30:10;;;;;;;662.77;216.63;;;10.60;99.90;;;;;;4935353;29;20537;-87
2022/07/28 02:32:43;;;;;;;658.23;220.07;;;10.60;99.90;;;;;;4934786;29;20731;-85
2022/07/28 02:35:15;;;;;;;659.80;226.90;;;10.60;72.30;;;;;;4934923;29;20649;-85
2022/07/28 02:37:49;;;;;;;657.30;221.30;;;10.60;99.90;;;;;;4934983;29;20186;-85
2022/07/28 02:40:19;;;;;;;649.17;208.77;;;10.40;1.00;;;;;;4934847;29;20201;-85
2022/07/28 02:42:49;;;;;;;658.00;219.93;;;10.40;1.00;;;;;;4935211;29;20256;-87
2022/07/28 02:45:20;;;;;;;655.13;218.17;;;10.30;1.00;;;;;;4935181;29;20192;-84
2022/07/28 02:47:52;;;;;;;653.90;223.73;;;10.30;1.00;;;;;;4934890;29;20657;-85
2022/07/28 02:50:24;;;;;;;656.13;225.63;;;10.30;1.00;;;;;;4935070;29;20193;-84
2022/07/28 02:52:56;;;;;;;654.50;225.77;;;10.40;1.00;;;;;;4934890;29;20205;-84
2022/07/28 02:55:25;;;;;;;653.93;227.27;;;10.40;99.90;;;;;;4934831;29;20667;-85
2022/07/28 02:57:53;;;;;;;600.63;227.20;;;10.40;1.00;;;;;;4934813;29;20199;-84
2022/07/28 03:00:21;;;;;;;612.53;229.77;;;10.30;1.00;;;;;;4934659;29;20198;-85
2022/07/28 03:02:49;;;;;;;641.47;221.37;;;10.30;1.00;;;;;;4934778;29;20208;-85
2022/07/28 03:05:17;;;;;;;622.77;225.73;;;10.20;99.90;;;;;;4934804;29;20199;-85
2022/07/28 03:07:44;;;;;;;642.43;224.10;;;10.30;99.90;;;;;;4934657;29;20203;-84
2022/07/28 03:10:20;;;;;;;617.83;222.67;;;10.30;99.90;;;;;;4934713;29;20234;-86
2022/07/28 03:12:48;;;;;;;648.90;222.10;;;10.20;99.90;;;;;;4934730;29;20231;-88
2022/07/28 03:15:15;;;;;;;652.77;219.77;;;10.20;99.90;;;;;;4934703;29;20203;-85
2022/07/28 03:17:42;;;;;;;655.23;214.83;;;10.20;99.90;;;;;;4935584;29;20197;-86
2022/07/28 03:20:11;;;;;;;645.30;216.77;;;10.00;11.30;;;;;;4936942;29;20197;-83
2022/07/28 03:22:38;;;;;;;626.90;208.23;;;10.00;87.00;;;;;;4935317;29;20209;-84
2022/07/28 03:25:10;;;;;;;603.67;220.90;;;10.00;99.90;;;;;;4938056;29;20197;-86
2022/07/28 03:27:43;;;;;;;642.50;212.97;;;10.00;99.90;;;;;;4939546;29;20186;-84
2022/07/28 03:30:15;;;;;;;655.23;207.43;;;10.10;99.90;;;;;;4937459;29;20192;-86
2022/07/28 03:32:49;;;;;;;656.23;211.87;;;10.20;99.90;;;;;;4937802;29;20307;-84
2022/07/28 03:35:17;;;;;;;655.13;208.33;;;10.20;99.90;;;;;;4939744;29;20597;-87
2022/07/28 03:37:49;;;;;;;658.87;212.63;;;10.30;99.90;;;;;;4937682;29;20206;-85
2022/07/28 03:40:17;;;;;;;655.80;208.67;;;10.30;1.00;;;;;;4936547;29;20603;-89
2022/07/28 03:42:47;;;;;;;656.07;208.23;;;10.40;1.00;;;;;;4939853;29;20201;-84
2022/07/28 03:45:18;;;;;;;658.27;216.33;;;10.40;1.00;;;;;;4940783;29;20209;-88
2022/07/28 03:47:55;;;;;;;660.27;226.10;;;10.50;1.00;;;;;;4940280;29;20190;-89
2022/07/28 03:50:23;;;;;;;657.07;217.03;;;10.50;1.00;;;;;;4937745;29;20589;-84
2022/07/28 03:52:51;;;;;;;656.27;225.60;;;10.60;1.00;;;;;;4943080;29;20229;-86
2022/07/28 03:55:18;;;;;;;662.27;232.63;;;10.70;1.00;;;;;;4940044;29;20586;-88
2022/07/28 03:57:48;;;;;;;662.00;228.83;;;10.70;1.00;;;;;;4940587;29;20668;-87
2022/07/28 04:00:16;;;;;;;652.07;223.20;;;10.80;1.00;;;;;;4940178;29;20660;-87
2022/07/28 04:02:44;;;;;;;658.00;225.37;;;11.00;1.00;;;;;;4943465;29;20561;-85
2022/07/28 04:05:12;;;;;;;663.20;231.60;;;11.60;1.00;;;;;;4939918;29;20193;-86
2022/07/28 04:07:39;;;;;;;661.30;242.73;;;12.40;1.00;;;;;;4939061;29;20239;-85
2022/07/28 04:10:08;;;;;;;657.20;240.10;;;13.40;43.20;;;;;;4938135;29;20587;-86
2022/07/28 04:12:50;;;;;;;649.43;244.20;;;14.40;1.00;;;;;;4939955;29;20218;-85
2022/07/28 04:15:21;;;;;;;657.27;258.77;;;15.50;1.00;;;;;;4939214;29;20185;-88
2022/07/28 04:17:49;;;;;;;661.57;276.40;;;16.40;99.90;;;;;;4940841;29;20202;-85
2022/07/28 04:20:17;;;;;;;666.13;296.67;;;17.20;1.00;;;;;;4940335;29;20244;-90
2022/07/28 04:22:44;;;;;;;674.40;321.40;;;17.90;67.60;;;;;;4940519;29;20201;-86
2022/07/28 04:25:12;;;;;;;679.20;336.13;;;18.60;1.00;;;;;;4937584;29;20201;-85
2022/07/28 04:27:40;;;;;;;687.60;361.43;;;19.20;9.60;;;;;;4940473;29;20228;-85
2022/07/28 04:30:11;;;;;;;696.00;384.03;;;19.90;1.00;;;;;;4941446;29;20208;-86
2022/07/28 04:32:39;;;;;;;695.60;394.10;;;20.60;99.90;;;;;;4936903;29;20216;-84
2022/07/28 04:35:06;;;;;;;;;;;21.40;99.90;;;;;;4937413;29;20055;-85
2022/07/28 04:37:33;;;;;;;704.57;439.03;;;22.10;1.00;;;;;;4941679;29;20217;-86
2022/07/28 04:40:00;;;;;;;706.73;463.67;;;22.70;1.00;;;;;;4944144;28;20192;-87
2022/07/28 04:42:27;;;;;;;;;;;23.40;99.90;;;;;;4940367;29;20647;-86
2022/07/28 04:44:54;;;;;;;704.87;492.50;;;23.90;21.40;;;;;;4940581;29;20372;-88
2022/07/28 04:47:23;;;;;;;706.53;504.23;;;24.40;1.00;;;;;;4939875;29;20624;-87
2022/07/28 04:50:07;;;;;;;717.17;542.73;;;24.80;1.00;;;;;;4939658;29;20232;-86
2022/07/28 04:52:37;;;;;;;;;;;25.30;1.00;;;;;;4939800;29;20256;-87
2022/07/28 04:55:04;;;;;;;;;;;25.70;1.00;;;;;;4942026;29;20009;-88
2022/07/28 04:57:40;;;;;;;722.67;588.43;;;26.10;1.00;;;;;;4941009;29;20188;-91
2022/07/28 05:03:38;;;;;;;727.22;619.00;;;27.00;1.00;;;;;;4887904;29;20060;-86
2022/07/28 05:06:05;;;;;;;729.85;628.53;;;27.40;1.00;;;;;;4940812;29;20209;-88
2022/07/28 05:08:32;;;;;;;735.47;648.20;;;27.70;99.90;;;;;;4941252;29;20197;-86
2022/07/28 05:10:59;;;;;;;;;;;28.10;99.90;;;;;;4938155;29;20075;-84
2022/07/28 05:13:26;;;;;;;749.20;667.30;;;28.50;99.90;;;;;;4936470;29;20004;-86
2022/07/28 05:15:53;;;;;;;765.38;683.38;;;29.00;99.90;;;;;;4936011;29;20573;-87
2022/07/28 05:18:20;;;;;;;786.67;703.90;;;29.60;99.90;;;;;;4936499;29;20205;-85
2022/07/28 05:20:48;;;;;;;;;;;30.10;99.90;;;;;;4936534;29;20489;-86
2022/07/28 05:23:16;;;;;;;798.30;716.20;;;30.60;99.90;;;;;;4936178;29;19974;-86
2022/07/28 05:25:43;;;;;;;826.90;743.38;;;31.10;99.90;;;;;;4936533;29;20214;-86
2022/07/28 05:28:10;;;;;;;860.22;774.95;;;31.50;99.90;;;;;;4934772;29;20557;-86
2022/07/28 05:30:37;;;;;;;862.67;778.38;;;31.90;99.90;;;;;;4935762;29;20201;-86
2022/07/28 05:33:04;;;;;;;863.47;779.58;;;32.30;99.90;;;;;;4935964;29;20267;-86
2022/07/28 05:35:31;;;;;;;884.05;799.75;;;32.60;99.90;;;;;;4935698;29;20529;-86
2022/07/28 05:38:00;;;;;;;885.95;801.47;;;32.70;99.90;;;;;;4935537;29;20228;-87
2022/07/28 05:40:27;;;;;;;900.30;814.95;;;32.70;99.90;;;;;;4935914;29;20197;-88
2022/07/28 05:42:54;;;;;;;891.72;806.42;;;32.80;99.90;;;;;;4935340;29;20197;-86
2022/07/28 05:45:21;;;;;;;908.83;822.95;;;33.10;99.90;;;;;;4939886;29;20201;-86
2022/07/28 05:47:51;;;;;;;913.33;826.47;;;33.40;99.90;;;;;;4942617;29;20191;-87
2022/07/28 05:50:19;;;;;;;929.10;841.90;;;33.70;99.90;;;;;;4955054;29;20287;-86
2022/07/28 05:52:48;;;;;;;932.85;845.90;;;33.90;99.90;;;;;;4952896;29;20200;-86
2022/07/28 05:55:17;;;;;;;949.92;863.17;;;34.00;99.90;;;;;;4935827;29;20302;-85
2022/07/28 05:57:45;;;;;;;944.97;858.08;;;34.20;99.90;;;;;;4935865;29;20196;-85
2022/07/28 06:00:15;;;;;;;953.03;864.70;;;34.50;99.90;;;;;;4943361;29;20189;-85
2022/07/28 06:02:44;;;;;;;956.20;868.72;;;34.70;99.90;;;;;;4941569;29;20238;-86
2022/07/28 06:05:11;;;;;;;969.40;881.30;;;34.90;99.90;;;;;;4939644;29;20243;-83
2022/07/28 06:07:38;;;;;;;966.97;879.33;;;35.00;99.90;;;;;;4945343;29;20207;-85
2022/07/28 06:10:06;;;;;;;971.55;883.88;;;35.10;99.90;;;;;;4943598;29;20233;-85
2022/07/28 06:12:41;;;;;;;980.72;893.35;;;35.50;99.90;;;;;;4950104;29;20207;-89
2022/07/28 06:15:17;;;;;;;975.88;888.92;;;35.70;99.90;;;;;;4951328;29;20554;-87
2022/07/28 06:17:51;;;;;;;983.25;895.78;;;35.90;99.90;;;;;;4955096;28;20183;-83
2022/07/28 06:20:32;;;;;;;986.40;898.88;;;36.20;99.90;;;;;;4963253;29;20235;-90
2022/07/28 06:23:08;;;;;;;1002.97;914.95;;;36.50;99.90;;;;;;4960095;29;20195;-89
2022/07/28 06:25:36;;;;;;;998.90;911.25;;;36.80;99.90;;;;;;4958160;29;20222;-87
2022/07/28 06:28:04;;;;;;;1015.47;927.22;;;37.00;99.90;;;;;;4953016;29;20189;-83
2022/07/28 06:30:32;;;;;;;1018.75;930.03;;;37.20;99.90;;;;;;4943159;29;20211;-83
2022/07/28 06:32:59;;;;;;;1017.40;929.17;;;37.30;99.90;;;;;;4952134;29;20188;-87
2022/07/28 06:35:26;;;;;;;1032.03;943.28;;;37.20;99.90;;;;;;4961370;29;20291;-83
2022/07/28 06:37:53;;;;;;;1031.65;942.55;;;37.40;99.90;;;;;;4964517;29;20192;-84
2022/07/28 06:40:28;;;;;;;1026.60;938.13;;;37.70;99.90;;;;;;4959059;29;20687;-87
2022/07/28 06:43:02;;;;;;;1034.28;945.72;;;37.80;99.90;;;;;;4952381;29;20528;-86
2022/07/28 06:45:31;;;;;;;1040.80;951.90;;;37.90;99.90;;;;;;4956148;29;20216;-83
2022/07/28 06:47:58;;;;;;;1038.20;949.53;;;37.90;99.90;;;;;;4949041;29;20191;-84
2022/07/28 06:50:37;;;;;;;1056.38;967.20;;;38.10;99.90;;;;;;4949105;29;20216;-90
2022/07/28 06:53:14;;;;;;;985.28;898.88;;;38.40;99.90;;;;;;4945591;29;20640;-83
2022/07/28 06:55:42;;;;;;;1009.60;920.35;;;38.70;99.90;;;;;;4941641;29;20196;-84
2022/07/28 06:58:09;;;;;;;1009.25;920.78;;;38.80;99.90;;;;;;4938551;29;20192;-86
2022/07/28 07:00:37;;;;;;;1024.43;934.45;;;38.60;99.90;;;;;;4942208;29;20267;-83
2022/07/28 07:03:04;;;;;;;1019.40;929.97;;;38.50;99.90;;;;;;4938963;29;20212;-84
2022/07/28 07:05:31;;;;;;;1037.47;947.83;;;38.50;99.90;;;;;;4940642;29;20353;-84
2022/07/28 07:08:04;;;;;;;1041.93;951.75;;;38.70;99.90;;;;;;4946595;29;20201;-87
2022/07/28 07:10:31;;;;;;;1019.45;929.83;;;39.00;99.90;;;;;;4939916;29;20279;-85
2022/07/28 07:13:03;;;;;;;990.22;903.33;;;39.40;99.90;;;;;;4942608;29;20197;-89
2022/07/28 07:15:30;;;;;;;1034.95;945.15;;;39.40;99.90;;;;;;4946026;28;20281;-83
2022/07/28 07:17:59;;;;;;;1012.92;924.20;;;39.40;99.90;;;;;;4951808;29;20223;-83
2022/07/28 07:20:26;;;;;;;1000.58;913.17;;;39.20;99.90;;;;;;4948633;29;20617;-83
2022/07/28 07:22:54;;;;;;;1029.78;941.08;;;39.10;99.90;;;;;;4954407;29;20203;-83
2022/07/28 07:25:21;;;;;;;1046.57;956.85;;;38.90;99.90;;;;;;4946599;29;20567;-83
2022/07/28 07:28:00;;;;;;;1057.50;967.17;;;38.70;99.90;;;;;;4941038;29;20222;-88
2022/07/28 07:30:27;;;;;;;1103.80;999.90;;;38.60;99.90;;;;;;4950435;29;20187;-86
2022/07/28 07:32:54;;;;;;;1066.13;975.25;;;38.20;99.90;;;;;;4951320;29;20191;-87
2022/07/28 07:35:23;;;;;;;1064.55;973.30;;;38.10;99.90;;;;;;4948258;29;20225;-85
2022/07/28 07:37:50;;;;;;;1016.15;926.80;;;38.00;99.90;;;;;;4945678;29;20648;-85
2022/07/28 07:40:18;;;;;;;1008.70;920.13;;;37.80;99.90;;;;;;4947564;29;20189;-82
2022/07/28 07:42:45;;;;;;;890.63;808.47;;;38.10;99.90;;;;;;4942478;29;20192;-84
2022/07/28 07:45:12;;;;;;;746.20;672.42;;;38.10;99.90;;;;;;4949843;29;20200;-83
2022/07/28 07:47:39;;;;;;;1025.10;935.85;;;37.40;99.90;;;;;;4946925;29;20200;-84
2022/07/28 07:50:07;;;;;;;1069.82;980.28;;;37.00;99.90;;;;;;4940342;29;20200;-84
2022/07/28 07:52:36;;;;;;;1058.82;969.80;;;37.30;99.90;;;;;;4937669;29;20207;-84
2022/07/28 07:55:03;;;;;;;1059.75;970.20;;;37.30;99.90;;;;;;4937693;29;20204;-84
2022/07/28 07:57:30;;;;;;;1045.57;956.20;;;37.50;99.90;;;;;;4938063;29;20193;-84
2022/07/28 07:59:57;;;;;;;1053.60;963.97;;;37.50;99.90;;;;;;4942644;29;20200;-84
2022/07/28 08:02:24;;;;;;;1056.00;966.55;;;37.70;99.90;;;;;;4937460;29;20196;-84
2022/07/28 08:04:51;;;;;;;1059.72;969.78;;;37.70;99.90;;;;;;4937437;29;20215;-87
2022/07/28 08:07:18;;;;;;;1054.05;964.35;;;37.80;99.90;;;;;;4937307;29;20243;-84
2022/07/28 08:09:47;;;;;;;1048.82;959.25;;;37.90;99.90;;;;;;4939994;29;20228;-84
2022/07/28 08:12:20;;;;;;;821.78;742.42;;;37.60;99.90;;;;;;4951876;29;20180;-86
2022/07/28 08:14:53;;;;;;;932.88;847.55;;;36.50;99.90;;;;;;4960022;29;20212;-86
2022/07/28 08:17:27;;;;;;;1040.97;951.85;;;36.10;99.90;;;;;;4960095;29;20278;-90
2022/07/28 08:19:54;;;;;;;994.88;905.08;;;35.40;99.90;;;;;;4950077;29;20189;-82
2022/07/28 08:22:22;;;;;;;972.47;883.58;;;34.60;99.90;;;;;;4939710;29;20206;-83
2022/07/28 08:24:50;;;;;;;1001.15;912.58;;;34.50;99.90;;;;;;4945574;28;20303;-84
2022/07/28 08:27:17;;;;;;;1002.25;912.45;;;34.60;99.90;;;;;;4945253;29;20191;-83
2022/07/28 08:29:44;;;;;;;1020.85;931.58;;;34.80;99.90;;;;;;4947769;29;20292;-84
2022/07/28 08:32:11;;;;;;;1002.80;915.47;;;35.10;99.90;;;;;;4941525;29;20188;-84
2022/07/28 08:34:38;;;;;;;1008.47;921.13;;;35.40;99.90;;;;;;4945065;29;20188;-83
2022/07/28 08:37:06;;;;;;;1017.00;929.30;;;35.90;99.90;;;;;;4956325;29;20092;-86
2022/07/28 08:39:34;;;;;;;1021.40;932.95;;;36.30;99.90;;;;;;4956130;29;20247;-83
2022/07/28 08:42:06;;;;;;;1021.13;933.53;;;36.10;99.90;;;;;;4953337;29;20202;-85
2022/07/28 08:44:47;;;;;;;1007.20;919.03;;;35.90;99.90;;;;;;4933640;29;20212;-85
2022/07/28 08:47:16;;;;;;;1026.75;937.92;;;36.20;99.90;;;;;;4944977;29;20196;-84
2022/07/28 08:49:43;;;;;;;1027.82;938.55;;;36.20;99.90;;;;;;4945990;29;20196;-85
2022/07/28 08:52:12;;;;;;;1029.50;941.35;;;36.20;99.90;;;;;;4938987;29;20197;-84
2022/07/28 08:54:43;;;;;;;1036.70;946.42;;;36.10;99.90;;;;;;4936436;29;20728;-87
2022/07/28 08:57:17;;;;;;;1036.43;948.10;;;36.40;99.90;;;;;;4936756;29;20240;-84
2022/07/28 08:59:44;;;;;;;1045.85;957.17;;;36.80;99.90;;;;;;4936471;29;20227;-84
2022/07/28 09:02:12;;;;;;;1073.85;981.28;;;36.40;99.90;;;;;;4936582;29;20204;-84
2022/07/28 09:04:41;;;;;;;1024.68;934.22;;;36.30;99.90;;;;;;4936378;29;20310;-84
2022/07/28 09:07:12;;;;;;;1038.43;946.83;;;36.30;99.90;;;;;;4952848;29;20201;-89
2022/07/28 09:09:55;;;;;;;1029.90;941.38;;;36.40;99.90;;;;;;4958760;29;20227;-87
2022/07/28 09:12:23;;;;;;;1048.47;957.83;;;36.30;99.90;;;;;;4953752;29;20203;-84
2022/07/28 09:14:50;;;;;;;1011.38;920.50;;;36.40;99.90;;;;;;4942822;29;20204;-84
2022/07/28 09:17:18;;;;;;;1059.72;968.33;;;36.60;99.90;;;;;;4936395;29;20205;-84
2022/07/28 09:19:50;;;;;;;1020.00;932.00;;;36.80;99.90;;;;;;4936861;29;20207;-86
2022/07/28 09:22:24;;;;;;;1049.90;959.80;;;36.70;99.90;;;;;;4959000;29;20216;-87
2022/07/28 09:25:09;;;;;;;;;;;36.50;99.90;;;;;;4959139;29;20244;-89
2022/07/28 09:27:45;;;;;;;1012.33;923.90;;;36.20;99.90;;;;;;4956447;29;20085;-82
2022/07/28 09:30:12;;;;;;;1021.42;931.00;;;36.00;99.90;;;;;;4935861;29;20207;-82
2022/07/28 09:32:39;;;;;;;769.60;692.35;;;35.20;99.90;;;;;;4935657;29;20601;-81
2022/07/28 09:35:20;;;;;;;980.45;892.50;;;34.10;99.90;;;;;;4957805;29;20181;-87
2022/07/28 09:38:13;;;;;;;;;;;32.90;99.90;;;;;;4957712;29;20106;-86
2022/07/28 09:40:43;;;;;;;975.70;886.03;;;32.10;99.90;;;;;;4958977;29;20214;-85
2022/07/28 09:43:34;;;;;;;962.35;874.13;;;31.40;99.90;;;;;;4957073;29;20188;-90
2022/07/28 09:46:14;;;;;;;918.93;831.63;;;31.30;99.90;;;;;;4957700;29;20227;-85
2022/07/28 09:49:16;;;;;;;834.53;751.07;;;31.30;99.90;;;;;;4966581;29;20216;-89
2022/07/28 09:52:18;;;;;;;773.60;692.10;;;31.00;99.90;;;;;;4948715;29;20169;-88
2022/07/28 09:55:07;;;;;;;823.50;738.30;;;30.50;99.90;;;;;;4959207;29;20210;-87
2022/07/28 09:57:57;;;;;;;814.73;729.90;;;30.50;99.90;;;;;;4977579;29;20176;-89
2022/07/28 10:00:38;;;;;;;661.47;445.00;;;30.40;99.90;;;;;;4960656;29;20193;-82
2022/07/28 10:03:06;;;;;;;639.03;431.10;;;30.40;99.90;;;;;;4945296;29;20240;-84
2022/07/28 10:08:45;;;;;;;716.37;608.70;;;29.80;99.90;;;;;;4954868;29;20201;-85
2022/07/28 10:11:42;;;;;;;764.97;682.07;;;28.90;99.90;;;;;;4955671;29;20221;-86
2022/07/28 10:14:22;;;;;;;798.30;714.90;;;28.40;99.90;;;;;;4957757;29;20177;-84
2022/07/28 10:17:12;;;;;;;863.77;778.07;;;28.40;99.90;;;;;;4938159;29;20201;-87
2022/07/28 10:19:39;;;;;;;832.20;746.43;;;28.10;99.90;;;;;;4944661;29;20216;-85
2022/07/28 10:22:08;;;;;;;725.07;616.00;;;28.10;99.90;;;;;;4928418;29;20194;-80
2022/07/28 10:27:38;;;;;;;778.67;695.37;;;28.00;99.90;;;;;;4929712;29;20220;-87
2022/07/28 10:33:14;;;;;;;;;;;28.40;99.90;;;;;;4934952;29;20129;-82
2022/07/28 10:35:41;;;;;;;755.00;672.70;;;28.30;99.90;;;;;;4938266;29;20181;-82
2022/07/28 10:38:13;;;;;;;795.27;711.50;;;28.30;99.90;;;;;;4941764;29;20216;-88
2022/07/28 10:40:42;;;;;;;802.57;718.83;;;28.30;99.90;;;;;;4950745;29;20201;-84
2022/07/28 10:43:10;;;;;;;775.70;692.83;;;28.40;99.90;;;;;;4940745;29;20192;-81
2022/07/28 10:45:39;;;;;;;748.27;666.23;;;28.50;99.90;;;;;;4948283;29;20205;-82
2022/07/28 10:48:26;;;;;;;729.37;617.30;;;28.10;99.90;;;;;;4944573;29;20207;-81
2022/07/28 10:50:54;;;;;;;751.50;668.83;;;27.90;99.90;;;;;;4954109;29;20676;-85
2022/07/28 10:53:34;;;;;;;768.17;685.47;;;27.90;99.90;;;;;;4953440;29;20205;-87
2022/07/28 10:56:35;;;;;;;738.47;651.60;;;28.00;99.90;;;;;;4956441;29;20259;-81
2022/07/28 10:59:11;;;;;;;767.27;684.30;;;27.80;99.90;;;;;;4952258;29;20248;-82
2022/07/28 11:01:39;;;;;;;791.70;707.90;;;27.60;99.90;;;;;;4947414;29;20200;-85
2022/07/28 11:04:41;;;;;;;778.80;695.70;;;27.50;99.90;;;;;;4951248;29;20197;-88
2022/07/28 11:07:14;;;;;;;780.13;697.63;;;27.30;99.90;;;;;;4951793;29;20204;-83
2022/07/28 11:09:46;;;;;;;797.97;715.10;;;27.40;99.90;;;;;;4935699;29;20233;-82
2022/07/28 11:12:36;;;;;;;;;;;27.30;99.90;;;;;;4947644;29;20150;-83
2022/07/28 11:15:25;;;;;;;;;;;27.30;99.90;;;;;;4948448;29;19927;-82
2022/07/28 11:18:21;;;;;;;783.40;700.90;;;27.50;99.90;;;;;;4952191;29;25083;-86
2022/07/28 11:21:10;;;;;;;780.53;698.33;;;27.60;99.90;;;;;;4950281;29;20213;-85
2022/07/28 11:23:45;;;;;;;781.03;698.83;;;27.50;99.90;;;;;;4946774;29;20203;-85
2022/07/28 11:26:40;;;;;;;784.97;702.30;;;27.50;99.90;;;;;;4952007;29;20264;-85
2022/07/28 11:29:45;;;;;;;787.07;705.07;;;27.50;99.90;;;;;;4952013;29;20197;-85
2022/07/28 11:32:13;;;;;;;810.63;727.43;;;27.60;99.90;;;;;;4941365;29;20544;-84
2022/07/28 11:35:09;;;;;;;786.07;703.47;;;27.70;99.90;;;;;;4942425;29;20258;-85
2022/07/28 11:38:11;;;;;;;801.67;718.87;;;27.70;99.90;;;;;;4943688;29;20600;-84
2022/07/28 11:40:42;;;;;;;806.07;723.00;;;27.50;99.90;;;;;;4941149;29;20309;-87
2022/07/28 11:43:38;;;;;;;786.37;703.23;;;27.30;99.90;;;;;;4941852;29;20205;-86
2022/07/28 11:46:38;;;;;;;756.43;673.70;;;27.20;99.90;;;;;;4944165;29;20277;-84
2022/07/28 11:52:20;;;;;;;672.40;418.13;;;26.50;99.90;;;;;;4924186;29;20196;-87
2022/07/28 11:54:52;;;;;;;694.47;483.17;;;26.40;99.90;;;;;;4947906;29;20705;-85
2022/07/28 11:57:25;;;;;;;675.93;431.03;;;26.50;99.90;;;;;;4947508;29;20205;-83
2022/07/28 11:59:55;;;;;;;653.07;334.20;;;26.60;99.90;;;;;;4944187;29;20209;-84
2022/07/28 12:02:31;;;;;;;670.10;403.87;;;26.70;99.90;;;;;;4943597;29;20590;-85
2022/07/28 12:05:19;;;;;;;660.90;399.37;;;26.80;99.90;;;;;;4946338;29;20197;-82
2022/07/28 12:07:49;;;;;;;657.10;363.80;;;26.80;99.90;;;;;;4914436;28;20300;-86
2022/07/28 12:10:25;;;;;;;672.80;434.17;;;26.90;99.90;;;;;;4945510;29;20252;-86
2022/07/28 12:12:54;;;;;;;711.77;561.47;;;26.90;99.90;;;;;;4951807;29;20184;-83
2022/07/28 12:15:23;;;;;;;731.53;631.93;;;26.80;99.90;;;;;;4946148;29;20205;-85
2022/07/28 12:17:50;;;;;;;717.53;555.10;;;26.80;99.90;;;;;;4943937;29;20201;-85
2022/07/28 12:20:37;;;;;;;720.13;591.97;;;26.90;99.90;;;;;;4939253;29;20253;-86
2022/07/28 12:23:06;;;;;;;712.60;590.13;;;27.00;99.90;;;;;;4943707;29;20193;-84
2022/07/28 12:25:44;;;;;;;752.77;668.87;;;27.10;99.90;;;;;;4954058;29;20223;-83
2022/07/28 12:28:49;;;;;;;760.07;677.57;;;27.20;99.90;;;;;;4948362;29;20187;-85
2022/07/28 12:31:24;;;;;;;740.70;653.03;;;27.20;99.90;;;;;;4937723;29;20209;-86
2022/07/28 12:33:52;;;;;;;732.93;633.43;;;27.20;99.90;;;;;;4948314;29;20235;-82
2022/07/28 12:36:20;;;;;;;734.93;646.53;;;27.20;99.90;;;;;;4951115;29;20213;-85
2022/07/28 12:38:49;;;;;;;753.67;670.77;;;27.00;99.90;;;;;;4942169;29;20205;-83
2022/07/28 12:41:17;;;;;;;748.33;664.93;;;26.90;99.90;;;;;;4942397;29;20264;-81
2022/07/28 12:43:54;;;;;;;734.83;639.07;;;26.80;99.90;;;;;;4943424;29;20662;-86
2022/07/28 12:49:38;;;;;;;729.57;619.07;;;26.80;99.90;;;;;;4949456;29;20181;-85
2022/07/28 12:52:19;;;;;;;735.63;629.30;;;26.90;99.90;;;;;;4959809;29;20213;-87
2022/07/28 12:55:09;;;;;;;753.87;671.63;;;26.90;99.90;;;;;;4959290;29;20187;-87
2022/07/28 12:57:52;;;;;;;748.50;665.43;;;26.90;99.90;;;;;;4944112;29;20277;-89